Time;durP1;ratioP1;P1;durP2;ratioP2;P2;SDS_P1;SDS_P2;PMS_P1;PMS_P2;Temp;Humidity;BMP_temperature;BMP_pressure;BME280_temperature;BME280_humidity;BME280_pressure;Samples;Min_cycle;Max_cycle;Signal;HPM_P1;HPM_P2
2024/04/09 00:01:09;;;;;;;13.80;8.50;;;;;;;;;;5449005;26;20227;-73
2024/04/09 00:03:38;;;;;;;9.70;7.77;;;;;;;;;;5451705;26;20528;-73
2024/04/09 00:06:14;;;;;;;11.97;8.77;;;;;;;;;;5458538;26;20279;-73
2024/04/09 00:08:44;;;;;;;11.73;8.13;;;;;;;;;;5453200;26;20523;-73
2024/04/09 00:11:12;;;;;;;9.00;8.10;;;;;;;;;;5455133;26;20460;-73
2024/04/09 00:13:41;;;;;;;13.80;7.67;;;;;;;;;;5452014;26;20525;-72
2024/04/09 00:16:12;;;;;;;13.40;7.77;;;;;;;;;;5454111;26;20460;-73
2024/04/09 00:18:42;;;;;;;9.67;7.10;;;;;;;;;;5460156;26;20468;-73
2024/04/09 00:21:10;;;;;;;14.63;8.17;;;;;;;;;;5459659;26;20594;-73
2024/04/09 00:23:39;;;;;;;13.83;9.37;;;;;;;;;;5456927;26;20506;-73
2024/04/09 00:26:05;;;;;;;10.73;8.40;;;;;;;;;;5450184;26;20528;-72
2024/04/09 00:28:33;;;;;;;11.23;8.13;;;;;;;;;;5450224;26;20452;-73
2024/04/09 00:31:00;;;;;;;13.80;7.60;;;;;;;;;;5456755;26;20258;-74
2024/04/09 00:33:29;;;;;;;12.03;9.10;;;;;;;;;;5452827;26;20479;-75
2024/04/09 00:35:55;;;;;;;14.77;7.90;;;;;;;;;;5461574;26;20459;-72
2024/04/09 00:38:27;;;;;;;16.80;8.70;;;;;;;;;;5463327;26;20513;-73
2024/04/09 00:40:52;;;;;;;15.13;8.17;;;;;;;;;;5458330;26;20230;-73
2024/04/09 00:43:21;;;;;;;12.20;10.33;;;;;;;;;;5444333;26;20527;-72
2024/04/09 00:45:47;;;;;;;11.50;9.70;;;;;;;;;;5461407;26;20278;-73
2024/04/09 00:48:16;;;;;;;9.67;8.50;;;;;;;;;;5446632;26;20467;-72
2024/04/09 00:50:45;;;;;;;11.70;7.40;;;;;;;;;;5448250;26;20455;-71
2024/04/09 00:53:15;;;;;;;13.93;7.93;;;;;;;;;;5453029;26;20463;-72
2024/04/09 00:55:44;;;;;;;12.80;8.60;;;;;;;;;;5468167;26;21347;-72
2024/04/09 00:58:12;;;;;;;9.43;6.93;;;;;;;;;;5456340;26;20605;-72
2024/04/09 01:00:40;;;;;;;12.07;7.13;;;;;;;;;;5450578;26;20581;-72
2024/04/09 01:03:08;;;;;;;11.57;8.10;;;;;;;;;;5452700;26;20551;-72
2024/04/09 01:05:35;;;;;;;14.33;7.63;;;;;;;;;;5451607;26;20455;-71
2024/04/09 01:08:03;;;;;;;9.93;7.47;;;;;;;;;;5446806;26;20588;-72
2024/04/09 01:10:29;;;;;;;14.30;7.57;;;;;;;;;;5462807;26;20475;-71
2024/04/09 01:13:00;;;;;;;9.53;7.50;;;;;;;;;;5459938;26;20867;-72
2024/04/09 01:15:25;;;;;;;9.50;7.87;;;;;;;;;;5452853;26;20274;-71
2024/04/09 01:17:54;;;;;;;9.27;7.30;;;;;;;;;;5466375;26;20538;-72
2024/04/09 01:20:19;;;;;;;8.23;6.87;;;;;;;;;;5447747;26;20235;-71
2024/04/09 01:22:50;;;;;;;12.93;7.47;;;;;;;;;;5435430;26;20518;-72
2024/04/09 01:25:16;;;;;;;9.30;7.90;;;;;;;;;;5450308;26;20304;-73
2024/04/09 01:27:44;;;;;;;17.00;8.30;;;;;;;;;;5446541;26;20471;-72
2024/04/09 01:30:12;;;;;;;17.47;8.73;;;;;;;;;;5461341;26;20284;-72
2024/04/09 01:32:41;;;;;;;11.30;7.30;;;;;;;;;;5449111;26;20600;-72
2024/04/09 01:35:06;;;;;;;11.93;8.83;;;;;;;;;;5452544;26;20522;-72
2024/04/09 01:37:34;;;;;;;11.03;8.03;;;;;;;;;;5447450;26;20488;-72
2024/04/09 01:40:04;;;;;;;17.20;9.33;;;;;;;;;;5465309;26;20237;-73
2024/04/09 01:42:32;;;;;;;11.00;7.53;;;;;;;;;;5457841;26;20524;-72
2024/04/09 01:44:58;;;;;;;11.43;8.37;;;;;;;;;;5449427;26;20557;-72
2024/04/09 01:47:26;;;;;;;19.97;8.00;;;;;;;;;;5446189;26;20482;-72
2024/04/09 01:49:52;;;;;;;11.23;7.47;;;;;;;;;;5450033;26;20373;-72
2024/04/09 01:52:20;;;;;;;9.00;7.33;;;;;;;;;;5451903;26;20484;-72
2024/04/09 01:54:46;;;;;;;14.40;7.67;;;;;;;;;;5459748;26;20924;-72
2024/04/09 01:57:17;;;;;;;8.70;7.30;;;;;;;;;;5456141;26;20467;-73
2024/04/09 01:59:42;;;;;;;10.20;7.63;;;;;;;;;;5461287;26;20739;-73
2024/04/09 02:02:11;;;;;;;9.50;7.10;;;;;;;;;;5455150;26;20463;-73
2024/04/09 02:04:36;;;;;;;12.60;6.57;;;;;;;;;;5460804;26;20286;-73
2024/04/09 02:07:04;;;;;;;13.07;7.03;;;;;;;;;;5461399;26;20566;-73
2024/04/09 02:09:30;;;;;;;12.20;6.80;;;;;;;;;;5471873;26;20234;-72
2024/04/09 02:11:58;;;;;;;15.60;7.20;;;;;;;;;;5478207;26;20574;-73
2024/04/09 02:14:27;;;;;;;10.50;8.53;;;;;;;;;;5457445;26;20234;-72
2024/04/09 02:16:55;;;;;;;11.60;6.03;;;;;;;;;;5455479;26;20506;-72
2024/04/09 02:19:21;;;;;;;12.87;6.03;;;;;;;;;;5457991;26;20531;-72
2024/04/09 02:21:49;;;;;;;8.63;6.70;;;;;;;;;;5457919;26;20460;-72
2024/04/09 02:24:15;;;;;;;14.13;7.13;;;;;;;;;;5462079;26;20270;-72
2024/04/09 02:26:43;;;;;;;11.83;6.77;;;;;;;;;;5458875;26;20530;-72
2024/04/09 02:29:09;;;;;;;10.40;6.47;;;;;;;;;;5446058;26;20264;-72
2024/04/09 02:31:40;;;;;;;15.23;8.20;;;;;;;;;;5455745;26;20639;-72
2024/04/09 02:34:06;;;;;;;10.40;6.37;;;;;;;;;;5462669;26;20456;-72
2024/04/09 02:36:34;;;;;;;14.27;6.57;;;;;;;;;;5464251;26;21051;-73
2024/04/09 02:39:00;;;;;;;10.50;6.30;;;;;;;;;;5452813;26;20269;-72
2024/04/09 02:41:28;;;;;;;13.43;5.60;;;;;;;;;;5452887;26;20472;-74
2024/04/09 02:43:53;;;;;;;7.90;6.27;;;;;;;;;;5441875;26;20244;-73
2024/04/09 02:46:22;;;;;;;12.47;6.13;;;;;;;;;;5457432;26;20523;-73
2024/04/09 02:48:50;;;;;;;9.13;6.60;;;;;;;;;;5466398;26;20313;-73
2024/04/09 02:51:21;;;;;;;9.63;6.57;;;;;;;;;;5487415;26;20478;-73
2024/04/09 02:53:47;;;;;;;9.83;6.03;;;;;;;;;;5447352;26;20476;-72
2024/04/09 02:56:15;;;;;;;11.27;6.00;;;;;;;;;;5472061;26;20465;-72
2024/04/09 02:58:40;;;;;;;11.43;6.20;;;;;;;;;;5475244;26;20230;-72
2024/04/09 03:01:09;;;;;;;12.47;5.90;;;;;;;;;;5456841;26;20467;-72
2024/04/09 03:03:35;;;;;;;12.27;6.03;;;;;;;;;;5455515;26;20239;-72
2024/04/09 03:06:11;;;;;;;10.57;5.97;;;;;;;;;;5458745;26;20467;-73
2024/04/09 03:08:36;;;;;;;8.47;5.57;;;;;;;;;;5454442;26;20519;-72
2024/04/09 03:11:11;;;;;;;10.80;5.90;;;;;;;;;;5449763;26;20468;-72
2024/04/09 03:13:37;;;;;;;8.77;5.40;;;;;;;;;;5447890;26;20336;-73
2024/04/09 03:16:12;;;;;;;8.20;5.67;;;;;;;;;;5458374;26;20455;-72
2024/04/09 03:18:38;;;;;;;9.73;6.43;;;;;;;;;;5465179;26;20895;-72
2024/04/09 03:21:06;;;;;;;11.10;5.50;;;;;;;;;;5465266;26;20964;-72
2024/04/09 03:23:34;;;;;;;10.20;5.63;;;;;;;;;;5456553;26;20253;-72
2024/04/09 03:26:03;;;;;;;8.23;5.50;;;;;;;;;;5452484;26;20480;-72
2024/04/09 03:28:28;;;;;;;10.67;5.93;;;;;;;;;;5455064;26;20558;-72
2024/04/09 03:31:00;;;;;;;14.60;6.37;;;;;;;;;;5481060;26;20471;-72
2024/04/09 03:33:25;;;;;;;12.60;6.50;;;;;;;;;;5461152;26;20271;-72
2024/04/09 03:35:54;;;;;;;10.33;6.13;;;;;;;;;;5459187;26;20452;-72
2024/04/09 03:38:22;;;;;;;11.23;6.73;;;;;;;;;;5472698;26;20239;-71
2024/04/09 03:40:57;;;;;;;15.57;6.40;;;;;;;;;;5453350;26;20562;-71
2024/04/09 03:43:26;;;;;;;14.87;6.47;;;;;;;;;;5456826;26;20460;-72
2024/04/09 03:46:00;;;;;;;14.73;6.30;;;;;;;;;;5452593;26;20464;-72
2024/04/09 03:48:28;;;;;;;8.03;5.90;;;;;;;;;;5465171;26;20521;-72
2024/04/09 03:50:53;;;;;;;12.57;6.47;;;;;;;;;;5455917;26;20565;-72
2024/04/09 03:53:22;;;;;;;17.77;5.67;;;;;;;;;;5449032;26;20464;-73
2024/04/09 03:55:55;;;;;;;17.57;6.00;;;;;;;;;;5458738;26;20229;-72
2024/04/09 03:58:23;;;;;;;20.63;6.77;;;;;;;;;;5443440;26;20582;-73
2024/04/09 04:00:53;;;;;;;21.77;6.73;;;;;;;;;;5447352;26;20524;-72
2024/04/09 04:03:22;;;;;;;16.27;6.07;;;;;;;;;;5455278;26;20468;-72
2024/04/09 04:05:49;;;;;;;11.97;5.67;;;;;;;;;;5466764;26;20556;-72
2024/04/09 04:08:17;;;;;;;19.97;6.43;;;;;;;;;;5461796;26;20531;-72
2024/04/09 04:10:51;;;;;;;16.47;8.30;;;;;;;;;;5458991;26;20467;-72
2024/04/09 04:13:22;;;;;;;11.73;7.17;;;;;;;;;;5469841;26;21668;-73
2024/04/09 04:15:55;;;;;;;22.47;7.20;;;;;;;;;;5454979;26;20587;-71
2024/04/09 04:18:23;;;;;;;11.73;7.17;;;;;;;;;;5462509;26;20470;-72
2024/04/09 04:20:50;;;;;;;16.03;6.93;;;;;;;;;;5446784;26;20479;-71
2024/04/09 04:23:19;;;;;;;14.17;8.53;;;;;;;;;;5457423;26;20643;-71
2024/04/09 04:25:52;;;;;;;17.07;7.70;;;;;;;;;;5464380;26;20571;-75
2024/04/09 04:28:23;;;;;;;13.50;7.17;;;;;;;;;;5468743;26;20560;-75
2024/04/09 04:30:49;;;;;;;20.63;6.93;;;;;;;;;;5467736;26;20472;-75
2024/04/09 04:33:17;;;;;;;11.70;6.57;;;;;;;;;;5437755;26;20936;-73
2024/04/09 04:35:42;;;;;;;11.67;6.90;;;;;;;;;;5454925;26;20342;-77
2024/04/09 04:38:10;;;;;;;10.90;6.90;;;;;;;;;;5465760;26;20462;-78
2024/04/09 04:40:36;;;;;;;17.80;7.73;;;;;;;;;;5457918;26;20282;-79
2024/04/09 04:43:04;;;;;;;12.90;6.50;;;;;;;;;;5468046;26;20460;-78
2024/04/09 04:45:33;;;;;;;14.70;7.10;;;;;;;;;;5465851;26;20230;-78
2024/04/09 04:48:01;;;;;;;11.83;7.50;;;;;;;;;;5455637;26;20480;-77
2024/04/09 04:50:26;;;;;;;12.70;7.90;;;;;;;;;;5458361;26;20539;-79
2024/04/09 04:52:56;;;;;;;7.50;6.57;;;;;;;;;;5475880;26;20564;-80
2024/04/09 04:55:21;;;;;;;19.43;8.50;;;;;;;;;;5475664;26;20282;-80
2024/04/09 04:57:50;;;;;;;12.90;6.80;;;;;;;;;;5463821;26;20593;-78
2024/04/09 05:00:15;;;;;;;11.60;6.13;;;;;;;;;;5452187;26;20275;-78
2024/04/09 05:02:47;;;;;;;13.83;6.87;;;;;;;;;;5468051;26;20456;-80
2024/04/09 05:05:13;;;;;;;14.23;6.20;;;;;;;;;;5459248;26;20233;-76
2024/04/09 05:07:42;;;;;;;8.40;5.63;;;;;;;;;;5481621;26;20534;-75
2024/04/09 05:10:12;;;;;;;15.47;6.83;;;;;;;;;;5458228;26;20314;-76
2024/04/09 05:12:38;;;;;;;15.00;6.50;;;;;;;;;;5450487;26;20463;-76
2024/04/09 05:15:08;;;;;;;15.20;7.17;;;;;;;;;;5446514;26;20511;-76
2024/04/09 05:17:33;;;;;;;13.77;6.60;;;;;;;;;;5439405;26;20235;-74
2024/04/09 05:20:09;;;;;;;12.03;5.97;;;;;;;;;;5446785;26;20966;-76
2024/04/09 05:22:35;;;;;;;12.17;7.17;;;;;;;;;;5436904;26;20238;-77
2024/04/09 05:25:03;;;;;;;13.80;7.40;;;;;;;;;;5430637;26;20529;-75
2024/04/09 05:27:29;;;;;;;9.97;6.23;;;;;;;;;;5452968;26;20646;-75
2024/04/09 05:29:57;;;;;;;13.40;5.90;;;;;;;;;;5451034;26;21012;-73
2024/04/09 05:32:23;;;;;;;12.13;6.37;;;;;;;;;;5442123;26;20298;-72
2024/04/09 05:34:51;;;;;;;16.67;7.67;;;;;;;;;;5453134;26;20574;-76
2024/04/09 05:37:20;;;;;;;12.60;6.47;;;;;;;;;;5460077;26;20510;-75
2024/04/09 05:39:48;;;;;;;15.40;6.63;;;;;;;;;;5469843;26;21148;-77
2024/04/09 05:42:14;;;;;;;13.83;8.17;;;;;;;;;;5477005;26;20506;-78
2024/04/09 05:44:42;;;;;;;11.03;6.93;;;;;;;;;;5460870;26;20464;-78
2024/04/09 05:47:11;;;;;;;10.70;7.50;;;;;;;;;;5467590;26;20297;-78
2024/04/09 05:49:36;;;;;;;9.63;7.03;;;;;;;;;;5456379;26;20829;-76
2024/04/09 05:52:05;;;;;;;11.03;6.37;;;;;;;;;;5483652;26;20512;-79
2024/04/09 05:54:38;;;;;;;9.60;6.30;;;;;;;;;;5461554;26;20868;-78
2024/04/09 05:57:07;;;;;;;15.43;6.47;;;;;;;;;;5465478;26;20447;-77
2024/04/09 05:59:34;;;;;;;9.87;7.23;;;;;;;;;;5469277;26;20463;-78
2024/04/09 06:02:02;;;;;;;12.70;6.70;;;;;;;;;;5481889;26;20544;-78
2024/04/09 06:04:29;;;;;;;15.00;6.70;;;;;;;;;;5456880;26;20475;-78
2024/04/09 06:06:57;;;;;;;9.00;6.23;;;;;;;;;;5457717;26;20476;-78
2024/04/09 06:09:22;;;;;;;13.77;6.70;;;;;;;;;;5469692;26;21054;-79
2024/04/09 06:11:54;;;;;;;10.33;6.13;;;;;;;;;;5465545;26;20467;-78
2024/04/09 06:14:19;;;;;;;11.40;6.60;;;;;;;;;;5462883;26;20940;-78
2024/04/09 06:16:47;;;;;;;13.43;6.90;;;;;;;;;;5458763;26;20476;-78
2024/04/09 06:19:13;;;;;;;10.73;7.20;;;;;;;;;;5458253;26;20339;-74
2024/04/09 06:21:41;;;;;;;12.23;6.33;;;;;;;;;;5456825;26;20467;-73
2024/04/09 06:24:07;;;;;;;10.60;6.70;;;;;;;;;;5460674;26;20963;-74
2024/04/09 06:26:35;;;;;;;12.00;6.57;;;;;;;;;;5462988;26;20456;-72
2024/04/09 06:29:04;;;;;;;13.40;6.67;;;;;;;;;;5475992;26;20935;-76
2024/04/09 06:31:32;;;;;;;11.07;6.70;;;;;;;;;;5456254;26;20593;-73
2024/04/09 06:33:58;;;;;;;12.10;6.57;;;;;;;;;;5460872;26;20605;-76
2024/04/09 06:36:26;;;;;;;8.93;6.90;;;;;;;;;;5457944;26;20542;-75
2024/04/09 06:38:52;;;;;;;13.40;6.70;;;;;;;;;;5468294;26;20768;-75
2024/04/09 06:41:20;;;;;;;10.20;6.77;;;;;;;;;;5462335;26;20467;-75
2024/04/09 06:43:45;;;;;;;9.23;6.23;;;;;;;;;;5470770;26;20608;-78
2024/04/09 06:46:16;;;;;;;9.93;6.70;;;;;;;;;;5464330;26;21042;-72
2024/04/09 06:48:42;;;;;;;14.67;6.20;;;;;;;;;;5466687;26;20231;-76
2024/04/09 06:51:11;;;;;;;11.53;6.20;;;;;;;;;;5468373;26;20466;-76
2024/04/09 06:53:37;;;;;;;10.07;6.13;;;;;;;;;;5457224;26;20243;-71
2024/04/09 06:56:05;;;;;;;7.10;6.40;;;;;;;;;;5456559;26;20527;-70
2024/04/09 06:58:31;;;;;;;15.60;6.50;;;;;;;;;;5460968;26;20273;-77
2024/04/09 07:00:59;;;;;;;23.27;8.20;;;;;;;;;;5456746;26;20933;-74
2024/04/09 07:03:31;;;;;;;15.77;6.90;;;;;;;;;;5457937;26;20603;-75
2024/04/09 07:05:56;;;;;;;13.30;7.90;;;;;;;;;;5468873;26;20507;-77
2024/04/09 07:08:24;;;;;;;9.37;6.60;;;;;;;;;;5469808;26;20471;-77
2024/04/09 07:10:54;;;;;;;13.63;6.50;;;;;;;;;;5459168;26;20234;-74
2024/04/09 07:13:22;;;;;;;11.97;7.00;;;;;;;;;;5455077;26;20466;-77
2024/04/09 07:15:48;;;;;;;8.87;7.10;;;;;;;;;;5467969;26;20468;-75
2024/04/09 07:18:16;;;;;;;11.80;7.60;;;;;;;;;;5454666;26;20514;-73
2024/04/09 07:20:46;;;;;;;11.40;6.30;;;;;;;;;;5467113;26;20298;-70
2024/04/09 07:23:15;;;;;;;11.13;7.23;;;;;;;;;;5459405;26;20472;-78
2024/04/09 07:25:40;;;;;;;8.37;6.60;;;;;;;;;;5457415;26;20480;-77
2024/04/09 07:28:08;;;;;;;11.40;7.00;;;;;;;;;;5477352;26;20549;-73
2024/04/09 07:30:35;;;;;;;16.47;8.97;;;;;;;;;;5470841;26;20260;-73
2024/04/09 07:33:04;;;;;;;8.37;7.10;;;;;;;;;;5456798;26;20506;-74
2024/04/09 07:35:30;;;;;;;9.90;7.17;;;;;;;;;;5479727;26;20526;-75
2024/04/09 07:38:01;;;;;;;10.70;8.90;;;;;;;;;;5453417;26;20458;-84
2024/04/09 07:40:27;;;;;;;12.50;8.27;;;;;;;;;;5480187;26;21014;-81
2024/04/09 07:42:55;;;;;;;15.90;7.10;;;;;;;;;;5459054;26;20549;-79
2024/04/09 07:45:20;;;;;;;11.73;7.70;;;;;;;;;;5458558;26;20727;-81
2024/04/09 07:47:51;;;;;;;9.50;7.57;;;;;;;;;;5466225;26;20535;-68
2024/04/09 07:50:16;;;;;;;12.87;9.27;;;;;;;;;;5468891;26;20229;-71
2024/04/09 07:52:45;;;;;;;10.20;9.30;;;;;;;;;;5475402;26;20545;-79
2024/04/09 07:55:14;;;;;;;9.20;8.40;;;;;;;;;;5462244;26;20275;-82
2024/04/09 07:57:42;;;;;;;11.93;9.20;;;;;;;;;;5460650;26;20468;-79
2024/04/09 08:00:13;;;;;;;12.20;10.93;;;;;;;;;;5476726;26;20516;-77
2024/04/09 08:02:42;;;;;;;15.43;11.93;;;;;;;;;;5458963;26;20526;-73
2024/04/09 08:05:09;;;;;;;11.80;9.60;;;;;;;;;;5469576;26;20758;-79
2024/04/09 08:07:38;;;;;;;11.27;10.17;;;;;;;;;;5460577;26;20475;-75
2024/04/09 08:10:09;;;;;;;10.40;9.30;;;;;;;;;;5476130;26;20584;-75
2024/04/09 08:12:40;;;;;;;10.97;9.87;;;;;;;;;;5459372;26;20456;-80
2024/04/09 08:15:08;;;;;;;9.77;9.00;;;;;;;;;;5456503;26;20643;-74
2024/04/09 08:17:37;;;;;;;10.67;8.93;;;;;;;;;;5455462;26;20467;-73
2024/04/09 08:20:07;;;;;;;12.73;9.47;;;;;;;;;;5461178;26;20531;-72
2024/04/09 08:22:35;;;;;;;11.13;9.97;;;;;;;;;;5458786;26;20581;-74
2024/04/09 08:25:02;;;;;;;9.67;8.83;;;;;;;;;;5461193;26;21065;-82
2024/04/09 08:27:30;;;;;;;9.63;8.83;;;;;;;;;;5465203;26;20632;-76
2024/04/09 08:29:58;;;;;;;10.90;10.10;;;;;;;;;;5463080;26;20539;-77
2024/04/09 08:32:26;;;;;;;9.60;8.70;;;;;;;;;;5475075;26;20542;-77
2024/04/09 08:34:53;;;;;;;10.03;9.17;;;;;;;;;;5465319;26;20463;-80
2024/04/09 08:37:21;;;;;;;9.40;8.57;;;;;;;;;;5453998;26;20942;-82
2024/04/09 08:39:52;;;;;;;15.17;9.60;;;;;;;;;;5471950;26;20466;-78
2024/04/09 08:42:20;;;;;;;10.23;9.17;;;;;;;;;;5461211;26;20464;-74
2024/04/09 08:44:50;;;;;;;11.00;8.80;;;;;;;;;;5457690;26;20480;-74
2024/04/09 08:47:20;;;;;;;9.60;8.80;;;;;;;;;;5453252;26;20527;-77
2024/04/09 08:49:48;;;;;;;9.30;8.50;;;;;;;;;;5453594;26;20520;-75
2024/04/09 08:52:14;;;;;;;9.40;8.10;;;;;;;;;;5455122;26;20518;-77
2024/04/09 08:54:43;;;;;;;11.20;8.80;;;;;;;;;;5468829;26;20456;-75
2024/04/09 08:57:09;;;;;;;9.13;8.30;;;;;;;;;;5460369;26;20473;-75
2024/04/09 08:59:38;;;;;;;8.63;7.73;;;;;;;;;;5455054;26;20456;-75
2024/04/09 09:02:06;;;;;;;8.90;8.20;;;;;;;;;;5450728;26;20584;-73
2024/04/09 09:04:41;;;;;;;10.50;7.83;;;;;;;;;;5444842;26;20455;-74
2024/04/09 09:07:12;;;;;;;8.97;8.20;;;;;;;;;;5466795;26;20452;-77
2024/04/09 09:09:41;;;;;;;9.20;8.50;;;;;;;;;;5459437;26;20467;-74
2024/04/09 09:12:06;;;;;;;10.63;8.43;;;;;;;;;;5462478;26;20463;-82
2024/04/09 09:14:35;;;;;;;8.20;7.40;;;;;;;;;;5463809;26;20542;-74
2024/04/09 09:17:01;;;;;;;6.23;5.73;;;;;;;;;;5464636;26;20332;-74
2024/04/09 09:19:31;;;;;;;6.07;5.50;;;;;;;;;;5466726;26;20468;-78
2024/04/09 09:21:59;;;;;;;6.30;5.80;;;;;;;;;;5455604;26;20526;-79
2024/04/09 09:24:28;;;;;;;6.13;5.63;;;;;;;;;;5470544;26;20585;-73
2024/04/09 09:26:59;;;;;;;6.27;5.87;;;;;;;;;;5458861;26;20515;-75
2024/04/09 09:29:28;;;;;;;6.07;5.60;;;;;;;;;;5452032;26;20484;-70
2024/04/09 09:31:53;;;;;;;6.03;5.63;;;;;;;;;;5476751;26;20479;-79
2024/04/09 09:34:24;;;;;;;6.00;5.70;;;;;;;;;;5461509;26;20524;-76
2024/04/09 09:36:54;;;;;;;6.73;6.33;;;;;;;;;;5453003;26;20269;-72
2024/04/09 09:39:26;;;;;;;6.33;5.83;;;;;;;;;;5459346;26;20511;-74
2024/04/09 09:41:53;;;;;;;6.67;6.27;;;;;;;;;;5456445;26;21272;-71
2024/04/09 09:44:22;;;;;;;7.13;6.63;;;;;;;;;;5457587;26;20479;-73
2024/04/09 09:46:48;;;;;;;7.30;6.80;;;;;;;;;;5435148;26;20477;-72
2024/04/09 09:49:16;;;;;;;7.20;6.70;;;;;;;;;;5453111;26;20519;-71
2024/04/09 09:51:42;;;;;;;6.40;5.97;;;;;;;;;;5457913;26;20472;-70
2024/04/09 09:54:11;;;;;;;7.20;6.67;;;;;;;;;;5456336;26;20938;-71
2024/04/09 09:56:42;;;;;;;5.37;5.07;;;;;;;;;;5432268;26;20653;-73
2024/04/09 09:59:10;;;;;;;5.70;5.33;;;;;;;;;;5443842;26;20467;-72
2024/04/09 10:01:37;;;;;;;4.73;4.43;;;;;;;;;;5454241;26;21027;-70
2024/04/09 10:04:06;;;;;;;5.10;4.77;;;;;;;;;;5461325;26;20590;-74
2024/04/09 10:06:31;;;;;;;4.30;4.00;;;;;;;;;;5452105;26;21018;-75
2024/04/09 10:09:07;;;;;;;5.37;4.90;;;;;;;;;;5472696;26;21101;-75
2024/04/09 10:11:41;;;;;;;5.73;5.23;;;;;;;;;;5454008;26;20226;-76
2024/04/09 10:14:12;;;;;;;5.90;5.10;;;;;;;;;;5457642;26;20464;-72
2024/04/09 10:16:38;;;;;;;6.70;5.40;;;;;;;;;;5461008;26;20507;-71
2024/04/09 10:19:06;;;;;;;5.47;5.07;;;;;;;;;;5468752;26;20464;-72
2024/04/09 10:21:31;;;;;;;5.57;5.07;;;;;;;;;;5453214;26;20231;-72
2024/04/09 10:24:03;;;;;;;7.70;5.00;;;;;;;;;;5450438;26;20468;-74
2024/04/09 10:26:29;;;;;;;5.70;5.30;;;;;;;;;;5477328;26;20234;-72
2024/04/09 10:29:04;;;;;;;5.37;4.97;;;;;;;;;;5457403;26;20937;-73
2024/04/09 10:31:42;;;;;;;6.03;4.37;;;;;;;;;;5474472;26;20272;-74
2024/04/09 10:34:10;;;;;;;5.20;4.70;;;;;;;;;;5450228;26;20877;-74
2024/04/09 10:36:36;;;;;;;5.50;5.10;;;;;;;;;;5459551;26;20506;-72
2024/04/09 10:39:07;;;;;;;4.80;4.37;;;;;;;;;;5477228;26;20455;-73
2024/04/09 10:41:32;;;;;;;5.07;4.57;;;;;;;;;;5462637;26;20519;-72
2024/04/09 10:44:01;;;;;;;5.30;4.80;;;;;;;;;;5461695;26;20580;-69
2024/04/09 10:46:26;;;;;;;5.30;4.90;;;;;;;;;;5461120;26;20223;-72
2024/04/09 10:48:57;;;;;;;5.07;4.57;;;;;;;;;;5455557;26;20533;-75
2024/04/09 10:51:23;;;;;;;7.20;5.60;;;;;;;;;;5453075;26;20226;-76
2024/04/09 10:53:52;;;;;;;5.30;4.90;;;;;;;;;;5448608;26;20472;-72
2024/04/09 10:56:18;;;;;;;6.77;5.10;;;;;;;;;;5468700;26;20470;-73
2024/04/09 10:58:46;;;;;;;5.53;5.13;;;;;;;;;;5459345;26;20533;-73
2024/04/09 11:01:14;;;;;;;5.50;4.70;;;;;;;;;;5472504;26;20472;-72
2024/04/09 11:03:42;;;;;;;5.10;4.70;;;;;;;;;;5463146;26;20476;-70
2024/04/09 11:06:12;;;;;;;5.70;5.20;;;;;;;;;;5467944;26;20992;-75
2024/04/09 11:08:41;;;;;;;4.80;4.40;;;;;;;;;;5469900;26;20479;-72
2024/04/09 11:11:07;;;;;;;5.73;5.33;;;;;;;;;;5477607;26;20518;-70
2024/04/09 11:13:35;;;;;;;8.90;5.20;;;;;;;;;;5475079;26;20523;-75
2024/04/09 11:16:01;;;;;;;6.67;5.20;;;;;;;;;;5466032;26;20562;-74
2024/04/09 11:18:30;;;;;;;6.40;5.10;;;;;;;;;;5476881;26;20460;-72
2024/04/09 11:20:56;;;;;;;5.43;4.93;;;;;;;;;;5464011;26;20233;-72
2024/04/09 11:23:28;;;;;;;5.33;5.03;;;;;;;;;;5453298;26;20522;-71
2024/04/09 11:25:54;;;;;;;6.00;5.40;;;;;;;;;;5443840;26;20456;-73
2024/04/09 11:28:23;;;;;;;8.70;5.30;;;;;;;;;;5452124;26;20539;-73
2024/04/09 11:30:51;;;;;;;5.83;5.27;;;;;;;;;;5462823;26;20475;-70
2024/04/09 11:33:20;;;;;;;7.00;5.30;;;;;;;;;;5471513;26;20466;-70
2024/04/09 11:35:51;;;;;;;5.33;4.93;;;;;;;;;;5472708;26;20472;-72
2024/04/09 11:38:20;;;;;;;7.70;5.17;;;;;;;;;;5443241;26;20685;-70
2024/04/09 11:40:48;;;;;;;4.57;4.10;;;;;;;;;;5474382;26;20460;-69
2024/04/09 11:43:17;;;;;;;5.47;4.60;;;;;;;;;;5463809;26;20460;-73
2024/04/09 11:45:43;;;;;;;6.07;5.67;;;;;;;;;;5468166;26;20817;-72
2024/04/09 11:48:11;;;;;;;5.80;5.30;;;;;;;;;;5462425;26;20471;-72
2024/04/09 11:50:37;;;;;;;5.67;5.20;;;;;;;;;;5450586;26;20476;-74
2024/04/09 11:53:06;;;;;;;5.27;4.93;;;;;;;;;;5460669;26;20528;-70
2024/04/09 11:55:32;;;;;;;5.40;5.00;;;;;;;;;;5451404;26;20607;-70
2024/04/09 11:58:02;;;;;;;5.70;5.20;;;;;;;;;;5447760;26;20467;-70
2024/04/09 12:00:28;;;;;;;6.07;5.57;;;;;;;;;;5455106;26;20535;-69
2024/04/09 12:02:56;;;;;;;5.00;4.60;;;;;;;;;;5444673;26;20462;-70
2024/04/09 12:05:22;;;;;;;5.80;5.30;;;;;;;;;;5446257;26;20771;-69
2024/04/09 12:07:50;;;;;;;6.80;4.97;;;;;;;;;;5463880;26;20537;-70
2024/04/09 12:10:16;;;;;;;5.50;5.10;;;;;;;;;;5466225;26;20464;-69
2024/04/09 12:12:44;;;;;;;5.80;4.60;;;;;;;;;;5465712;26;20519;-74
2024/04/09 12:15:13;;;;;;;7.13;5.30;;;;;;;;;;5470153;26;20235;-71
2024/04/09 12:17:42;;;;;;;9.70;6.00;;;;;;;;;;5463733;26;20476;-72
2024/04/09 12:20:08;;;;;;;5.50;5.10;;;;;;;;;;5465786;26;20574;-72
2024/04/09 12:22:36;;;;;;;4.73;4.33;;;;;;;;;;5457699;26;20813;-73
2024/04/09 12:25:02;;;;;;;4.57;4.27;;;;;;;;;;5457455;26;20230;-71
2024/04/09 12:27:31;;;;;;;4.67;4.27;;;;;;;;;;5456489;26;20589;-70
2024/04/09 12:29:56;;;;;;;8.03;5.20;;;;;;;;;;5465583;26;20238;-76
2024/04/09 12:32:27;;;;;;;5.27;4.80;;;;;;;;;;5473427;26;20641;-76
2024/04/09 12:34:53;;;;;;;6.67;4.90;;;;;;;;;;5456564;26;20239;-75
2024/04/09 12:37:21;;;;;;;4.60;4.30;;;;;;;;;;5447825;26;20958;-71
2024/04/09 12:39:47;;;;;;;4.20;3.90;;;;;;;;;;5434667;26;20230;-76
2024/04/09 12:42:16;;;;;;;4.80;4.50;;;;;;;;;;5441758;26;20464;-78
2024/04/09 12:44:42;;;;;;;5.17;4.37;;;;;;;;;;5444915;26;20323;-80
2024/04/09 12:47:11;;;;;;;4.67;3.93;;;;;;;;;;5437207;26;20614;-84
2024/04/09 12:49:40;;;;;;;4.70;4.30;;;;;;;;;;5444640;26;20553;-77
2024/04/09 12:52:09;;;;;;;4.60;4.23;;;;;;;;;;5452177;26;20463;-74
2024/04/09 12:54:35;;;;;;;5.93;5.43;;;;;;;;;;5446747;26;20536;-82
2024/04/09 12:57:03;;;;;;;5.83;4.40;;;;;;;;;;5435775;26;20475;-69
2024/04/09 12:59:33;;;;;;;4.50;4.20;;;;;;;;;;5436344;26;20285;-69
2024/04/09 13:02:02;;;;;;;5.10;4.70;;;;;;;;;;5443713;26;20481;-78
2024/04/09 13:04:31;;;;;;;4.73;4.43;;;;;;;;;;5442991;26;20465;-77
2024/04/09 13:07:03;;;;;;;5.03;4.63;;;;;;;;;;5445156;26;20616;-75
2024/04/09 13:09:29;;;;;;;4.67;4.40;;;;;;;;;;5460513;26;20477;-75
2024/04/09 13:11:58;;;;;;;4.40;4.10;;;;;;;;;;5442548;26;20470;-76
2024/04/09 13:14:24;;;;;;;5.93;5.40;;;;;;;;;;5444102;26;20278;-76
2024/04/09 13:16:52;;;;;;;5.57;5.03;;;;;;;;;;5437731;26;20508;-76
2024/04/09 13:19:18;;;;;;;4.70;4.50;;;;;;;;;;5444275;26;20391;-74
2024/04/09 13:21:47;;;;;;;5.30;5.00;;;;;;;;;;5450084;26;20506;-74
2024/04/09 13:24:15;;;;;;;4.63;4.33;;;;;;;;;;5444568;26;20463;-79
2024/04/09 13:26:44;;;;;;;4.93;4.43;;;;;;;;;;5443435;26;20460;-79
2024/04/09 13:29:09;;;;;;;4.93;4.63;;;;;;;;;;5453728;26;20521;-79
2024/04/09 13:31:38;;;;;;;5.30;4.90;;;;;;;;;;5455647;26;21157;-78
2024/04/09 13:34:03;;;;;;;4.30;4.10;;;;;;;;;;5454720;26;20785;-78
2024/04/09 13:36:32;;;;;;;4.80;4.60;;;;;;;;;;5448276;26;20460;-81
2024/04/09 13:38:57;;;;;;;7.47;4.57;;;;;;;;;;5461904;26;20265;-82
2024/04/09 13:41:29;;;;;;;4.53;4.27;;;;;;;;;;5452908;26;20487;-76
2024/04/09 13:43:54;;;;;;;4.30;3.97;;;;;;;;;;5453602;26;20323;-77
2024/04/09 13:46:23;;;;;;;5.50;5.13;;;;;;;;;;5447684;26;20479;-80
2024/04/09 13:48:50;;;;;;;5.00;4.60;;;;;;;;;;5450401;26;20822;-82
2024/04/09 13:51:19;;;;;;;6.10;5.07;;;;;;;;;;5448661;26;20464;-77
2024/04/09 13:53:44;;;;;;;4.97;4.67;;;;;;;;;;5454877;26;20919;-76
2024/04/09 13:56:13;;;;;;;4.90;4.40;;;;;;;;;;5467790;26;21001;-76
2024/04/09 13:58:41;;;;;;;4.77;4.37;;;;;;;;;;5459401;26;20236;-77
2024/04/09 14:01:09;;;;;;;4.93;4.43;;;;;;;;;;5451748;26;20477;-73
2024/04/09 14:03:35;;;;;;;5.53;5.00;;;;;;;;;;5460231;26;20515;-74
2024/04/09 14:06:03;;;;;;;4.90;4.53;;;;;;;;;;5455606;26;20460;-75
2024/04/09 14:08:28;;;;;;;4.87;4.47;;;;;;;;;;5455604;26;20282;-73
2024/04/09 14:10:57;;;;;;;5.17;4.77;;;;;;;;;;5469849;26;20464;-74
2024/04/09 14:13:23;;;;;;;5.90;4.93;;;;;;;;;;5466072;26;20261;-75
2024/04/09 14:15:54;;;;;;;5.10;4.67;;;;;;;;;;5464542;26;20475;-73
2024/04/09 14:18:19;;;;;;;4.77;4.30;;;;;;;;;;5455449;26;20550;-72
2024/04/09 14:20:48;;;;;;;4.77;4.47;;;;;;;;;;5454843;26;20465;-72
2024/04/09 14:23:13;;;;;;;5.40;5.00;;;;;;;;;;5463030;26;20273;-74
2024/04/09 14:25:42;;;;;;;6.17;4.90;;;;;;;;;;5471237;26;20458;-73
2024/04/09 14:28:08;;;;;;;4.70;4.40;;;;;;;;;;5465336;26;20231;-78
2024/04/09 14:30:36;;;;;;;7.03;4.77;;;;;;;;;;5452830;26;20528;-78
2024/04/09 14:33:04;;;;;;;4.87;4.40;;;;;;;;;;5448736;26;20818;-74
2024/04/09 14:35:33;;;;;;;5.93;5.10;;;;;;;;;;5440223;26;20525;-71
2024/04/09 14:37:58;;;;;;;6.90;5.07;;;;;;;;;;5448635;26;20464;-73
2024/04/09 14:40:27;;;;;;;7.57;5.30;;;;;;;;;;5444866;26;20519;-73